sensor_id;sensor_type;location;lat;lon;timestamp;temperature;humidity
42905;DHT22;28550;51.228;4.528;2024-03-06T00:02:36;8.60;99.90
42905;DHT22;28550;51.228;4.528;2024-03-06T00:05:17;8.70;99.90
42905;DHT22;28550;51.228;4.528;2024-03-06T00:07:53;8.70;99.90
42905;DHT22;28550;51.228;4.528;2024-03-06T00:10:25;8.70;99.90
42905;DHT22;28550;51.228;4.528;2024-03-06T00:12:57;8.60;99.90
42905;DHT22;28550;51.228;4.528;2024-03-06T00:15:29;8.50;99.90
42905;DHT22;28550;51.228;4.528;2024-03-06T00:18:07;8.50;99.90
42905;DHT22;28550;51.228;4.528;2024-03-06T00:20:45;8.40;99.90
42905;DHT22;28550;51.228;4.528;2024-03-06T00:23:13;8.40;99.90
42905;DHT22;28550;51.228;4.528;2024-03-06T00:25:42;8.40;99.90
42905;DHT22;28550;51.228;4.528;2024-03-06T00:31:58;8.30;99.90
42905;DHT22;28550;51.228;4.528;2024-03-06T00:34:57;8.20;99.90
42905;DHT22;28550;51.228;4.528;2024-03-06T08:00:03;13.60;1.00
42905;DHT22;28550;51.228;4.528;2024-03-06T08:02:42;14.10;1.00
42905;DHT22;28550;51.228;4.528;2024-03-06T08:07:46;15.30;99.90
42905;DHT22;28550;51.228;4.528;2024-03-06T08:10:36;15.00;1.00
42905;DHT22;28550;51.228;4.528;2024-03-06T08:13:04;15.90;1.00
42905;DHT22;28550;51.228;4.528;2024-03-06T08:15:34;16.50;99.90
42905;DHT22;28550;51.228;4.528;2024-03-06T08:18:00;16.80;99.90
42905;DHT22;28550;51.228;4.528;2024-03-06T08:20:48;17.50;99.90
42905;DHT22;28550;51.228;4.528;2024-03-06T08:23:17;17.80;1.00
42905;DHT22;28550;51.228;4.528;2024-03-06T08:25:43;17.80;1.00
42905;DHT22;28550;51.228;4.528;2024-03-06T08:28:10;18.20;99.90
42905;DHT22;28550;51.228;4.528;2024-03-06T08:30:38;17.20;99.90
42905;DHT22;28550;51.228;4.528;2024-03-06T08:33:07;17.90;99.90
42905;DHT22;28550;51.228;4.528;2024-03-06T08:35:34;18.90;99.90
42905;DHT22;28550;51.228;4.528;2024-03-06T08:38:06;19.60;99.90
42905;DHT22;28550;51.228;4.528;2024-03-06T08:40:32;20.70;1.00
42905;DHT22;28550;51.228;4.528;2024-03-06T08:42:59;18.90;26.60
42905;DHT22;28550;51.228;4.528;2024-03-06T08:45:25;18.70;1.00
42905;DHT22;28550;51.228;4.528;2024-03-06T08:48:00;19.00;99.90
42905;DHT22;28550;51.228;4.528;2024-03-06T08:50:26;19.40;99.90
42905;DHT22;28550;51.228;4.528;2024-03-06T08:52:54;19.90;1.00
42905;DHT22;28550;51.228;4.528;2024-03-06T08:55:30;20.40;1.00
42905;DHT22;28550;51.228;4.528;2024-03-06T08:57:58;19.80;7.30
42905;DHT22;28550;51.228;4.528;2024-03-06T09:00:26;19.70;1.00
42905;DHT22;28550;51.228;4.528;2024-03-06T09:03:19;20.20;1.00
42905;DHT22;28550;51.228;4.528;2024-03-06T09:05:50;20.30;1.00
42905;DHT22;28550;51.228;4.528;2024-03-06T09:08:23;20.70;1.00
42905;DHT22;28550;51.228;4.528;2024-03-06T09:11:16;21.30;1.00
42905;DHT22;28550;51.228;4.528;2024-03-06T09:13:45;21.60;99.90
42905;DHT22;28550;51.228;4.528;2024-03-06T09:16:17;21.30;99.90
42905;DHT22;28550;51.228;4.528;2024-03-06T09:18:59;21.90;99.90
42905;DHT22;28550;51.228;4.528;2024-03-06T09:21:34;22.20;99.90
42905;DHT22;28550;51.228;4.528;2024-03-06T09:24:14;21.00;99.90
42905;DHT22;28550;51.228;4.528;2024-03-06T09:27:29;20.80;99.90
42905;DHT22;28550;51.228;4.528;2024-03-06T09:30:11;20.30;1.00
42905;DHT22;28550;51.228;4.528;2024-03-06T09:32:44;21.60;99.90
42905;DHT22;28550;51.228;4.528;2024-03-06T09:35:35;22.40;99.90
42905;DHT22;28550;51.228;4.528;2024-03-06T09:38:09;22.70;99.90
42905;DHT22;28550;51.228;4.528;2024-03-06T09:40:41;22.10;99.90
42905;DHT22;28550;51.228;4.528;2024-03-06T09:43:08;21.30;99.90
42905;DHT22;28550;51.228;4.528;2024-03-06T09:45:35;20.40;99.90
42905;DHT22;28550;51.228;4.528;2024-03-06T09:48:08;19.70;99.90
42905;DHT22;28550;51.228;4.528;2024-03-06T09:50:35;18.00;99.90
42905;DHT22;28550;51.228;4.528;2024-03-06T09:53:23;17.40;99.90
42905;DHT22;28550;51.228;4.528;2024-03-06T09:55:57;17.20;99.90
42905;DHT22;28550;51.228;4.528;2024-03-06T09:58:26;17.30;1.00
42905;DHT22;28550;51.228;4.528;2024-03-06T10:00:58;17.80;28.50
42905;DHT22;28550;51.228;4.528;2024-03-06T10:03:27;18.10;1.00
42905;DHT22;28550;51.228;4.528;2024-03-06T10:06:01;17.90;99.90
42905;DHT22;28550;51.228;4.528;2024-03-06T10:08:41;17.00;1.00
42905;DHT22;28550;51.228;4.528;2024-03-06T10:11:15;15.30;99.90
42905;DHT22;28550;51.228;4.528;2024-03-06T10:14:09;14.90;1.00
42905;DHT22;28550;51.228;4.528;2024-03-06T10:16:36;15.80;1.00
42905;DHT22;28550;51.228;4.528;2024-03-06T10:19:26;16.30;1.00
42905;DHT22;28550;51.228;4.528;2024-03-06T10:22:02;16.40;99.90
42905;DHT22;28550;51.228;4.528;2024-03-06T10:24:41;15.60;99.90
42905;DHT22;28550;51.228;4.528;2024-03-06T10:27:13;15.50;92.70
42905;DHT22;28550;51.228;4.528;2024-03-06T10:30:09;17.00;1.00
42905;DHT22;28550;51.228;4.528;2024-03-06T10:33:04;18.70;99.90
42905;DHT22;28550;51.228;4.528;2024-03-06T10:35:52;19.80;1.00
42905;DHT22;28550;51.228;4.528;2024-03-06T10:38:33;21.50;1.00
42905;DHT22;28550;51.228;4.528;2024-03-06T10:41:04;22.80;99.90
42905;DHT22;28550;51.228;4.528;2024-03-06T10:43:33;24.60;99.90
42905;DHT22;28550;51.228;4.528;2024-03-06T10:46:01;25.70;99.90
42905;DHT22;28550;51.228;4.528;2024-03-06T10:48:32;26.20;99.90
42905;DHT22;28550;51.228;4.528;2024-03-06T10:51:03;24.90;99.90
42905;DHT22;28550;51.228;4.528;2024-03-06T10:53:30;23.80;99.90
42905;DHT22;28550;51.228;4.528;2024-03-06T10:55:58;22.50;99.90
42905;DHT22;28550;51.228;4.528;2024-03-06T10:58:37;21.10;99.90
42905;DHT22;28550;51.228;4.528;2024-03-06T11:01:25;20.30;99.90
42905;DHT22;28550;51.228;4.528;2024-03-06T11:04:03;19.60;99.90
42905;DHT22;28550;51.228;4.528;2024-03-06T11:09:16;18.30;1.00
42905;DHT22;28550;51.228;4.528;2024-03-06T11:11:52;18.50;1.00
42905;DHT22;28550;51.228;4.528;2024-03-06T11:14:23;18.90;99.90
42905;DHT22;28550;51.228;4.528;2024-03-06T11:17:16;18.10;1.00
42905;DHT22;28550;51.228;4.528;2024-03-06T11:20:18;17.50;1.00
42905;DHT22;28550;51.228;4.528;2024-03-06T11:23:04;16.60;17.30
42905;DHT22;28550;51.228;4.528;2024-03-06T11:25:56;17.50;1.00
42905;DHT22;28550;51.228;4.528;2024-03-06T11:29:01;17.60;1.00
42905;DHT22;28550;51.228;4.528;2024-03-06T11:31:34;17.50;1.00
42905;DHT22;28550;51.228;4.528;2024-03-06T11:34:10;17.60;59.00
42905;DHT22;28550;51.228;4.528;2024-03-06T11:37:24;18.70;1.00
42905;DHT22;28550;51.228;4.528;2024-03-06T11:48:55;19.80;99.90
42905;DHT22;28550;51.228;4.528;2024-03-06T11:51:24;21.10;99.90
42905;DHT22;28550;51.228;4.528;2024-03-06T11:54:05;22.40;99.90
42905;DHT22;28550;51.228;4.528;2024-03-06T11:56:32;22.90;99.90
42905;DHT22;28550;51.228;4.528;2024-03-06T11:58:58;22.80;99.90
42905;DHT22;28550;51.228;4.528;2024-03-06T12:01:27;23.30;99.90
42905;DHT22;28550;51.228;4.528;2024-03-06T12:03:55;22.00;99.90
42905;DHT22;28550;51.228;4.528;2024-03-06T12:06:21;21.40;99.90
42905;DHT22;28550;51.228;4.528;2024-03-06T12:08:48;21.10;99.90
42905;DHT22;28550;51.228;4.528;2024-03-06T12:11:35;22.20;99.90
42905;DHT22;28550;51.228;4.528;2024-03-06T12:14:19;22.40;99.90
42905;DHT22;28550;51.228;4.528;2024-03-06T12:17:02;22.80;99.90
42905;DHT22;28550;51.228;4.528;2024-03-06T12:19:35;22.20;99.90
42905;DHT22;28550;51.228;4.528;2024-03-06T12:22:04;22.00;99.90
42905;DHT22;28550;51.228;4.528;2024-03-06T12:24:30;22.20;99.90
42905;DHT22;28550;51.228;4.528;2024-03-06T12:27:07;23.00;99.90
42905;DHT22;28550;51.228;4.528;2024-03-06T12:29:35;24.70;99.90
42905;DHT22;28550;51.228;4.528;2024-03-06T12:32:02;24.40;99.90
42905;DHT22;28550;51.228;4.528;2024-03-06T12:34:31;22.90;99.90
42905;DHT22;28550;51.228;4.528;2024-03-06T12:37:11;23.50;99.90
42905;DHT22;28550;51.228;4.528;2024-03-06T12:53:29;23.10;99.90
42905;DHT22;28550;51.228;4.528;2024-03-06T12:56:08;21.70;99.90
42905;DHT22;28550;51.228;4.528;2024-03-06T12:58:54;20.40;99.90
42905;DHT22;28550;51.228;4.528;2024-03-06T13:01:25;18.40;99.90
42905;DHT22;28550;51.228;4.528;2024-03-06T13:04:05;18.00;99.90
42905;DHT22;28550;51.228;4.528;2024-03-06T13:06:58;17.60;99.90
42905;DHT22;28550;51.228;4.528;2024-03-06T13:12:41;16.40;1.00
42905;DHT22;28550;51.228;4.528;2024-03-06T13:15:37;16.60;1.00
42905;DHT22;28550;51.228;4.528;2024-03-06T13:18:19;17.20;1.00
42905;DHT22;28550;51.228;4.528;2024-03-06T13:20:45;19.70;99.90
42905;DHT22;28550;51.228;4.528;2024-03-06T13:23:16;21.30;99.90
42905;DHT22;28550;51.228;4.528;2024-03-06T13:25:41;22.70;99.90
42905;DHT22;28550;51.228;4.528;2024-03-06T13:28:07;23.50;99.90
42905;DHT22;28550;51.228;4.528;2024-03-06T13:30:36;25.10;99.90
42905;DHT22;28550;51.228;4.528;2024-03-06T13:33:03;24.90;99.90
42905;DHT22;28550;51.228;4.528;2024-03-06T13:35:29;26.70;99.90
42905;DHT22;28550;51.228;4.528;2024-03-06T13:37:55;27.10;99.90
42905;DHT22;28550;51.228;4.528;2024-03-06T13:40:20;26.70;99.90
42905;DHT22;28550;51.228;4.528;2024-03-06T13:42:46;26.70;99.90
42905;DHT22;28550;51.228;4.528;2024-03-06T13:45:13;26.50;99.90
42905;DHT22;28550;51.228;4.528;2024-03-06T13:47:43;25.70;99.90
42905;DHT22;28550;51.228;4.528;2024-03-06T13:50:14;26.70;99.90
42905;DHT22;28550;51.228;4.528;2024-03-06T13:52:41;27.30;99.90
42905;DHT22;28550;51.228;4.528;2024-03-06T13:55:07;28.20;99.90
42905;DHT22;28550;51.228;4.528;2024-03-06T13:57:34;26.80;99.90
42905;DHT22;28550;51.228;4.528;2024-03-06T14:00:08;27.90;99.90
42905;DHT22;28550;51.228;4.528;2024-03-06T14:02:51;26.90;99.90
42905;DHT22;28550;51.228;4.528;2024-03-06T14:05:17;25.90;97.50
42905;DHT22;28550;51.228;4.528;2024-03-06T14:07:45;25.60;99.90
42905;DHT22;28550;51.228;4.528;2024-03-06T14:10:11;25.60;96.20
42905;DHT22;28550;51.228;4.528;2024-03-06T14:12:37;26.20;99.90
42905;DHT22;28550;51.228;4.528;2024-03-06T14:15:08;26.80;99.90
42905;DHT22;28550;51.228;4.528;2024-03-06T14:17:41;26.50;99.90
42905;DHT22;28550;51.228;4.528;2024-03-06T14:20:07;27.00;97.50
42905;DHT22;28550;51.228;4.528;2024-03-06T14:22:33;26.20;99.90
42905;DHT22;28550;51.228;4.528;2024-03-06T14:25:21;24.50;91.70
42905;DHT22;28550;51.228;4.528;2024-03-06T14:28:08;24.60;79.90
42905;DHT22;28550;51.228;4.528;2024-03-06T14:30:34;25.10;98.60
42905;DHT22;28550;51.228;4.528;2024-03-06T14:33:01;25.30;98.50
42905;DHT22;28550;51.228;4.528;2024-03-06T14:35:26;25.10;95.30
42905;DHT22;28550;51.228;4.528;2024-03-06T14:38:05;23.80;99.70
42905;DHT22;28550;51.228;4.528;2024-03-06T14:40:31;22.40;94.80
42905;DHT22;28550;51.228;4.528;2024-03-06T14:43:03;21.10;96.70
42905;DHT22;28550;51.228;4.528;2024-03-06T14:45:35;19.90;99.90
42905;DHT22;28550;51.228;4.528;2024-03-06T14:48:17;19.40;99.90
42905;DHT22;28550;51.228;4.528;2024-03-06T14:51:08;18.80;99.90
42905;DHT22;28550;51.228;4.528;2024-03-06T14:53:48;18.30;99.90
42905;DHT22;28550;51.228;4.528;2024-03-06T14:56:44;18.30;99.90
42905;DHT22;28550;51.228;4.528;2024-03-06T14:59:48;18.20;99.90
42905;DHT22;28550;51.228;4.528;2024-03-06T15:02:17;19.60;99.90
42905;DHT22;28550;51.228;4.528;2024-03-06T15:04:50;19.80;99.90
42905;DHT22;28550;51.228;4.528;2024-03-06T15:07:20;19.00;99.90
42905;DHT22;28550;51.228;4.528;2024-03-06T15:10:13;18.00;99.90
42905;DHT22;28550;51.228;4.528;2024-03-06T15:13:01;17.20;99.90
42905;DHT22;28550;51.228;4.528;2024-03-06T15:16:14;17.00;99.90
42905;DHT22;28550;51.228;4.528;2024-03-06T15:19:09;16.70;99.90
42905;DHT22;28550;51.228;4.528;2024-03-06T15:21:54;16.60;99.90
42905;DHT22;28550;51.228;4.528;2024-03-06T15:24:24;16.40;99.90
42905;DHT22;28550;51.228;4.528;2024-03-06T15:26:49;16.30;99.90
42905;DHT22;28550;51.228;4.528;2024-03-06T15:29:15;16.00;99.90
42905;DHT22;28550;51.228;4.528;2024-03-06T15:31:46;15.80;99.90
42905;DHT22;28550;51.228;4.528;2024-03-06T15:52:20;16.30;99.90
42905;DHT22;28550;51.228;4.528;2024-03-06T15:54:48;16.90;99.90
42905;DHT22;28550;51.228;4.528;2024-03-06T15:57:15;17.20;99.90
42905;DHT22;28550;51.228;4.528;2024-03-06T15:59:45;17.20;99.90
42905;DHT22;28550;51.228;4.528;2024-03-06T16:02:14;17.40;99.90
42905;DHT22;28550;51.228;4.528;2024-03-06T16:04:43;17.10;99.90
42905;DHT22;28550;51.228;4.528;2024-03-06T16:07:34;16.60;99.90
42905;DHT22;28550;51.228;4.528;2024-03-06T16:10:19;16.10;99.90
42905;DHT22;28550;51.228;4.528;2024-03-06T16:12:49;15.70;99.90
42905;DHT22;28550;51.228;4.528;2024-03-06T16:15:16;15.40;99.90
42905;DHT22;28550;51.228;4.528;2024-03-06T16:17:43;15.10;25.40
42905;DHT22;28550;51.228;4.528;2024-03-06T16:20:40;14.80;99.90
42905;DHT22;28550;51.228;4.528;2024-03-06T16:23:28;14.50;1.00
42905;DHT22;28550;51.228;4.528;2024-03-06T16:25:59;14.40;99.90
42905;DHT22;28550;51.228;4.528;2024-03-06T16:28:25;14.10;99.90
42905;DHT22;28550;51.228;4.528;2024-03-06T16:30:51;14.00;93.00
42905;DHT22;28550;51.228;4.528;2024-03-06T16:33:22;13.90;99.90
42905;DHT22;28550;51.228;4.528;2024-03-06T16:35:50;13.80;1.00
42905;DHT22;28550;51.228;4.528;2024-03-06T16:38:25;13.80;1.00
42905;DHT22;28550;51.228;4.528;2024-03-06T16:41:19;13.70;53.30
42905;DHT22;28550;51.228;4.528;2024-03-06T16:43:44;13.70;99.90
42905;DHT22;28550;51.228;4.528;2024-03-06T16:46:29;13.80;1.00
42905;DHT22;28550;51.228;4.528;2024-03-06T16:48:57;13.80;1.00
42905;DHT22;28550;51.228;4.528;2024-03-06T16:51:28;13.80;99.90
42905;DHT22;28550;51.228;4.528;2024-03-06T16:54:02;13.80;99.90
42905;DHT22;28550;51.228;4.528;2024-03-06T16:56:48;13.70;1.00
42905;DHT22;28550;51.228;4.528;2024-03-06T16:59:17;13.70;1.00
42905;DHT22;28550;51.228;4.528;2024-03-06T17:05:07;13.60;99.90
42905;DHT22;28550;51.228;4.528;2024-03-06T17:07:34;13.40;2.60
42905;DHT22;28550;51.228;4.528;2024-03-06T17:10:20;13.30;99.90
42905;DHT22;28550;51.228;4.528;2024-03-06T17:13:17;13.10;99.90
42905;DHT22;28550;51.228;4.528;2024-03-06T17:16:18;12.60;99.90
42905;DHT22;28550;51.228;4.528;2024-03-06T17:22:31;12.10;99.90
42905;DHT22;28550;51.228;4.528;2024-03-06T17:24:57;12.00;1.00
42905;DHT22;28550;51.228;4.528;2024-03-06T17:27:28;11.70;1.00
42905;DHT22;28550;51.228;4.528;2024-03-06T17:29:53;11.60;99.90
42905;DHT22;28550;51.228;4.528;2024-03-06T17:32:41;11.40;1.00
42905;DHT22;28550;51.228;4.528;2024-03-06T17:35:20;11.30;99.90
42905;DHT22;28550;51.228;4.528;2024-03-06T17:38:09;11.10;1.00
42905;DHT22;28550;51.228;4.528;2024-03-06T17:40:48;10.90;99.90
42905;DHT22;28550;51.228;4.528;2024-03-06T17:43:37;10.70;99.90
42905;DHT22;28550;51.228;4.528;2024-03-06T17:46:04;10.60;99.90
42905;DHT22;28550;51.228;4.528;2024-03-06T17:48:40;10.50;1.00
42905;DHT22;28550;51.228;4.528;2024-03-06T17:51:34;10.30;1.00
42905;DHT22;28550;51.228;4.528;2024-03-06T17:54:30;10.20;1.00
42905;DHT22;28550;51.228;4.528;2024-03-06T17:57:09;10.10;1.00
42905;DHT22;28550;51.228;4.528;2024-03-06T17:59:53;9.90;1.00
42905;DHT22;28550;51.228;4.528;2024-03-06T18:02:19;9.80;1.00
42905;DHT22;28550;51.228;4.528;2024-03-06T18:04:44;9.70;1.00
42905;DHT22;28550;51.228;4.528;2024-03-06T18:07:17;9.70;1.00
42905;DHT22;28550;51.228;4.528;2024-03-06T18:09:54;9.60;1.00
42905;DHT22;28550;51.228;4.528;2024-03-06T18:12:26;9.50;1.00
42905;DHT22;28550;51.228;4.528;2024-03-06T18:14:57;9.30;1.00
42905;DHT22;28550;51.228;4.528;2024-03-06T18:17:45;9.20;1.00
42905;DHT22;28550;51.228;4.528;2024-03-06T18:20:34;9.20;1.00
42905;DHT22;28550;51.228;4.528;2024-03-06T18:23:04;9.10;1.00
42905;DHT22;28550;51.228;4.528;2024-03-06T18:26:01;9.00;1.00
42905;DHT22;28550;51.228;4.528;2024-03-06T18:29:18;8.90;1.00
42905;DHT22;28550;51.228;4.528;2024-03-06T18:35:08;8.70;1.00
42905;DHT22;28550;51.228;4.528;2024-03-06T18:37:39;8.60;1.00
42905;DHT22;28550;51.228;4.528;2024-03-06T18:40:32;8.50;3.00
42905;DHT22;28550;51.228;4.528;2024-03-06T18:43:08;8.40;10.10
42905;DHT22;28550;51.228;4.528;2024-03-06T18:45:36;8.40;11.00
42905;DHT22;28550;51.228;4.528;2024-03-06T18:48:30;8.30;17.20
42905;DHT22;28550;51.228;4.528;2024-03-06T18:54:39;8.20;27.00
42905;DHT22;28550;51.228;4.528;2024-03-06T19:01:22;8.10;38.70
42905;DHT22;28550;51.228;4.528;2024-03-06T19:07:43;8.00;52.20
42905;DHT22;28550;51.228;4.528;2024-03-06T19:10:18;8.00;53.80
42905;DHT22;28550;51.228;4.528;2024-03-06T19:12:54;7.90;54.10
42905;DHT22;28550;51.228;4.528;2024-03-06T19:15:25;7.80;58.50
42905;DHT22;28550;51.228;4.528;2024-03-06T19:18:13;7.80;59.20
42905;DHT22;28550;51.228;4.528;2024-03-06T19:20:48;7.80;58.10
42905;DHT22;28550;51.228;4.528;2024-03-06T19:23:16;7.80;58.50
42905;DHT22;28550;51.228;4.528;2024-03-06T19:25:43;7.70;59.70
42905;DHT22;28550;51.228;4.528;2024-03-06T19:28:14;7.70;62.00
42905;DHT22;28550;51.228;4.528;2024-03-06T19:30:42;7.80;66.80
42905;DHT22;28550;51.228;4.528;2024-03-06T19:33:08;7.60;72.00
42905;DHT22;28550;51.228;4.528;2024-03-06T19:35:35;7.50;73.10
42905;DHT22;28550;51.228;4.528;2024-03-06T19:38:05;7.50;75.40
42905;DHT22;28550;51.228;4.528;2024-03-06T19:40:36;7.50;76.50
42905;DHT22;28550;51.228;4.528;2024-03-06T19:46:31;7.40;81.00
42905;DHT22;28550;51.228;4.528;2024-03-06T19:52:33;7.40;82.90
42905;DHT22;28550;51.228;4.528;2024-03-06T19:58:26;7.20;90.20
42905;DHT22;28550;51.228;4.528;2024-03-06T20:04:26;7.20;92.10
42905;DHT22;28550;51.228;4.528;2024-03-06T20:10:18;7.10;92.40
42905;DHT22;28550;51.228;4.528;2024-03-06T20:16:07;7.00;94.20
42905;DHT22;28550;51.228;4.528;2024-03-06T20:21:56;6.90;95.90
42905;DHT22;28550;51.228;4.528;2024-03-06T20:27:48;6.80;96.00
42905;DHT22;28550;51.228;4.528;2024-03-06T20:33:47;6.70;95.60
42905;DHT22;28550;51.228;4.528;2024-03-06T20:39:44;6.60;96.80
42905;DHT22;28550;51.228;4.528;2024-03-06T20:49:51;6.50;99.50
42905;DHT22;28550;51.228;4.528;2024-03-06T20:56:33;6.60;99.40
42905;DHT22;28550;51.228;4.528;2024-03-06T21:12:40;6.50;99.40
42905;DHT22;28550;51.228;4.528;2024-03-06T21:22:28;6.30;99.70
42905;DHT22;28550;51.228;4.528;2024-03-06T21:51:35;6.10;99.80
42905;DHT22;28550;51.228;4.528;2024-03-06T21:54:09;6.10;99.70
42905;DHT22;28550;51.228;4.528;2024-03-06T21:56:59;6.20;97.70
42905;DHT22;28550;51.228;4.528;2024-03-06T21:59:45;6.10;99.20
42905;DHT22;28550;51.228;4.528;2024-03-06T22:12:34;5.80;99.90
42905;DHT22;28550;51.228;4.528;2024-03-06T22:15:01;5.80;99.90
42905;DHT22;28550;51.228;4.528;2024-03-06T22:17:34;5.80;99.90
42905;DHT22;28550;51.228;4.528;2024-03-06T22:20:00;5.70;99.90
42905;DHT22;28550;51.228;4.528;2024-03-06T22:22:37;5.80;99.90
42905;DHT22;28550;51.228;4.528;2024-03-06T22:25:04;5.70;99.90
42905;DHT22;28550;51.228;4.528;2024-03-06T22:27:32;5.70;99.90
42905;DHT22;28550;51.228;4.528;2024-03-06T22:29:58;5.70;99.90
42905;DHT22;28550;51.228;4.528;2024-03-06T22:32:24;5.60;99.90
42905;DHT22;28550;51.228;4.528;2024-03-06T22:34:50;5.60;99.90
42905;DHT22;28550;51.228;4.528;2024-03-06T22:37:16;5.50;99.90
42905;DHT22;28550;51.228;4.528;2024-03-06T22:39:44;5.50;99.90
42905;DHT22;28550;51.228;4.528;2024-03-06T22:42:12;5.50;99.90
42905;DHT22;28550;51.228;4.528;2024-03-06T22:44:39;5.40;99.90
42905;DHT22;28550;51.228;4.528;2024-03-06T22:47:07;5.50;99.90
42905;DHT22;28550;51.228;4.528;2024-03-06T22:49:33;5.40;99.90
42905;DHT22;28550;51.228;4.528;2024-03-06T22:52:04;5.50;99.90
42905;DHT22;28550;51.228;4.528;2024-03-06T22:54:30;5.40;99.90
42905;DHT22;28550;51.228;4.528;2024-03-06T22:56:58;5.40;99.90
42905;DHT22;28550;51.228;4.528;2024-03-06T22:59:24;5.50;99.90
42905;DHT22;28550;51.228;4.528;2024-03-06T23:02:17;5.40;99.90
42905;DHT22;28550;51.228;4.528;2024-03-06T23:04:48;5.40;99.90
42905;DHT22;28550;51.228;4.528;2024-03-06T23:07:24;5.40;99.90
42905;DHT22;28550;51.228;4.528;2024-03-06T23:09:52;5.40;99.90
42905;DHT22;28550;51.228;4.528;2024-03-06T23:12:39;5.30;99.90
42905;DHT22;28550;51.228;4.528;2024-03-06T23:15:15;5.40;99.90
42905;DHT22;28550;51.228;4.528;2024-03-06T23:17:47;5.40;99.90
42905;DHT22;28550;51.228;4.528;2024-03-06T23:20:36;5.30;99.90
42905;DHT22;28550;51.228;4.528;2024-03-06T23:23:03;5.30;99.90
42905;DHT22;28550;51.228;4.528;2024-03-06T23:25:49;5.30;99.90
42905;DHT22;28550;51.228;4.528;2024-03-06T23:28:22;5.30;99.90
42905;DHT22;28550;51.228;4.528;2024-03-06T23:31:13;5.20;99.90
42905;DHT22;28550;51.228;4.528;2024-03-06T23:34:17;5.30;99.90
42905;DHT22;28550;51.228;4.528;2024-03-06T23:36:47;5.30;99.90
42905;DHT22;28550;51.228;4.528;2024-03-06T23:39:17;5.40;99.90
42905;DHT22;28550;51.228;4.528;2024-03-06T23:42:11;5.30;99.90
42905;DHT22;28550;51.228;4.528;2024-03-06T23:44:50;5.30;99.90
42905;DHT22;28550;51.228;4.528;2024-03-06T23:47:22;5.30;99.90
42905;DHT22;28550;51.228;4.528;2024-03-06T23:50:39;5.30;99.90
42905;DHT22;28550;51.228;4.528;2024-03-06T23:53:32;5.40;99.90
42905;DHT22;28550;51.228;4.528;2024-03-06T23:56:53;5.30;99.90
42905;DHT22;28550;51.228;4.528;2024-03-06T23:59:24;5.40;99.90
